sensor_id;sensor_type;location;lat;lon;timestamp;P1;durP1;ratioP1;P2;durP2;ratioP2
4553;SDS011;2289;48.316;15.174;2024-03-17T00:01:59;1.40;;;1.30;;
4553;SDS011;2289;48.316;15.174;2024-03-17T00:04:26;2.93;;;1.63;;
4553;SDS011;2289;48.316;15.174;2024-03-17T00:08:02;3.80;;;1.50;;
4553;SDS011;2289;48.316;15.174;2024-03-17T00:10:38;2.53;;;1.60;;
4553;SDS011;2289;48.316;15.174;2024-03-17T00:13:05;2.70;;;2.23;;
4553;SDS011;2289;48.316;15.174;2024-03-17T00:15:33;2.97;;;1.63;;
4553;SDS011;2289;48.316;15.174;2024-03-17T00:17:59;5.00;;;2.30;;
4553;SDS011;2289;48.316;15.174;2024-03-17T00:20:27;3.00;;;2.00;;
4553;SDS011;2289;48.316;15.174;2024-03-17T00:22:54;1.93;;;1.73;;
4553;SDS011;2289;48.316;15.174;2024-03-17T00:25:23;2.90;;;2.00;;
4553;SDS011;2289;48.316;15.174;2024-03-17T00:27:50;2.90;;;2.17;;
4553;SDS011;2289;48.316;15.174;2024-03-17T00:30:22;1.80;;;1.67;;
4553;SDS011;2289;48.316;15.174;2024-03-17T00:32:49;2.20;;;2.00;;
4553;SDS011;2289;48.316;15.174;2024-03-17T00:35:17;2.60;;;1.80;;
4553;SDS011;2289;48.316;15.174;2024-03-17T00:37:46;2.40;;;2.00;;
4553;SDS011;2289;48.316;15.174;2024-03-17T00:40:14;4.20;;;2.47;;
4553;SDS011;2289;48.316;15.174;2024-03-17T00:42:40;3.00;;;2.10;;
4553;SDS011;2289;48.316;15.174;2024-03-17T00:45:08;2.80;;;2.23;;
4553;SDS011;2289;48.316;15.174;2024-03-17T00:47:37;1.97;;;1.70;;
4553;SDS011;2289;48.316;15.174;2024-03-17T00:50:05;2.10;;;1.83;;
4553;SDS011;2289;48.316;15.174;2024-03-17T00:52:35;3.10;;;2.10;;
4553;SDS011;2289;48.316;15.174;2024-03-17T00:55:03;2.57;;;2.27;;
4553;SDS011;2289;48.316;15.174;2024-03-17T00:57:30;3.77;;;2.37;;
4553;SDS011;2289;48.316;15.174;2024-03-17T00:59:57;2.10;;;1.90;;
4553;SDS011;2289;48.316;15.174;2024-03-17T01:02:24;8.47;;;3.00;;
4553;SDS011;2289;48.316;15.174;2024-03-17T01:04:53;2.90;;;2.63;;
4553;SDS011;2289;48.316;15.174;2024-03-17T01:07:20;2.83;;;2.10;;
4553;SDS011;2289;48.316;15.174;2024-03-17T01:09:48;3.17;;;2.03;;
4553;SDS011;2289;48.316;15.174;2024-03-17T01:12:14;3.00;;;2.40;;
4553;SDS011;2289;48.316;15.174;2024-03-17T01:14:42;4.63;;;1.93;;
4553;SDS011;2289;48.316;15.174;2024-03-17T01:17:08;3.73;;;2.60;;
4553;SDS011;2289;48.316;15.174;2024-03-17T01:19:36;2.40;;;2.20;;
4553;SDS011;2289;48.316;15.174;2024-03-17T01:22:04;2.90;;;2.63;;
4553;SDS011;2289;48.316;15.174;2024-03-17T01:24:31;3.97;;;2.40;;
4553;SDS011;2289;48.316;15.174;2024-03-17T01:26:59;3.00;;;2.50;;
4553;SDS011;2289;48.316;15.174;2024-03-17T01:29:27;4.70;;;2.30;;
4553;SDS011;2289;48.316;15.174;2024-03-17T01:31:54;3.47;;;2.30;;
4553;SDS011;2289;48.316;15.174;2024-03-17T01:34:22;2.63;;;1.80;;
4553;SDS011;2289;48.316;15.174;2024-03-17T01:36:49;3.13;;;2.33;;
4553;SDS011;2289;48.316;15.174;2024-03-17T01:39:18;2.60;;;2.40;;
4553;SDS011;2289;48.316;15.174;2024-03-17T01:41:45;7.80;;;1.93;;
4553;SDS011;2289;48.316;15.174;2024-03-17T01:44:21;2.83;;;2.20;;
4553;SDS011;2289;48.316;15.174;2024-03-17T01:46:48;3.20;;;2.93;;
4553;SDS011;2289;48.316;15.174;2024-03-17T01:49:24;3.67;;;3.03;;
4553;SDS011;2289;48.316;15.174;2024-03-17T01:51:51;3.77;;;2.20;;
4553;SDS011;2289;48.316;15.174;2024-03-17T01:54:21;3.70;;;2.53;;
4553;SDS011;2289;48.316;15.174;2024-03-17T01:56:48;4.67;;;2.33;;
4553;SDS011;2289;48.316;15.174;2024-03-17T01:59:16;2.50;;;2.20;;
4553;SDS011;2289;48.316;15.174;2024-03-17T02:01:43;2.60;;;2.40;;
4553;SDS011;2289;48.316;15.174;2024-03-17T02:04:10;2.13;;;1.93;;
4553;SDS011;2289;48.316;15.174;2024-03-17T02:06:37;2.30;;;2.10;;
4553;SDS011;2289;48.316;15.174;2024-03-17T02:09:05;3.47;;;2.37;;
4553;SDS011;2289;48.316;15.174;2024-03-17T02:11:35;3.20;;;2.07;;
4553;SDS011;2289;48.316;15.174;2024-03-17T02:14:03;5.20;;;2.50;;
4553;SDS011;2289;48.316;15.174;2024-03-17T02:16:32;2.30;;;2.17;;
4553;SDS011;2289;48.316;15.174;2024-03-17T02:19:00;3.13;;;2.13;;
4553;SDS011;2289;48.316;15.174;2024-03-17T02:21:27;2.07;;;1.80;;
4553;SDS011;2289;48.316;15.174;2024-03-17T02:23:57;4.47;;;2.40;;
4553;SDS011;2289;48.316;15.174;2024-03-17T02:26:25;2.60;;;1.67;;
4553;SDS011;2289;48.316;15.174;2024-03-17T02:28:54;2.07;;;1.83;;
4553;SDS011;2289;48.316;15.174;2024-03-17T02:31:21;6.07;;;2.10;;
4553;SDS011;2289;48.316;15.174;2024-03-17T02:33:49;5.20;;;2.97;;
4553;SDS011;2289;48.316;15.174;2024-03-17T02:36:15;1.90;;;1.80;;
4553;SDS011;2289;48.316;15.174;2024-03-17T02:38:43;3.87;;;2.67;;
4553;SDS011;2289;48.316;15.174;2024-03-17T02:41:30;2.30;;;2.10;;
4553;SDS011;2289;48.316;15.174;2024-03-17T02:43:57;2.10;;;1.90;;
4553;SDS011;2289;48.316;15.174;2024-03-17T02:46:24;2.93;;;2.73;;
4553;SDS011;2289;48.316;15.174;2024-03-17T02:48:53;2.60;;;2.40;;
4553;SDS011;2289;48.316;15.174;2024-03-17T02:51:22;2.50;;;2.30;;
4553;SDS011;2289;48.316;15.174;2024-03-17T02:53:50;2.50;;;2.30;;
4553;SDS011;2289;48.316;15.174;2024-03-17T02:56:18;2.10;;;1.90;;
4553;SDS011;2289;48.316;15.174;2024-03-17T02:58:48;4.83;;;2.50;;
4553;SDS011;2289;48.316;15.174;2024-03-17T03:01:17;4.37;;;2.83;;
4553;SDS011;2289;48.316;15.174;2024-03-17T03:03:45;2.57;;;2.33;;
4553;SDS011;2289;48.316;15.174;2024-03-17T03:06:14;3.50;;;2.73;;
4553;SDS011;2289;48.316;15.174;2024-03-17T03:08:45;2.27;;;2.13;;
4553;SDS011;2289;48.316;15.174;2024-03-17T03:11:14;2.83;;;2.63;;
4553;SDS011;2289;48.316;15.174;2024-03-17T03:13:43;2.37;;;2.17;;
4553;SDS011;2289;48.316;15.174;2024-03-17T03:16:13;3.83;;;2.27;;
4553;SDS011;2289;48.316;15.174;2024-03-17T03:18:41;2.63;;;2.13;;
4553;SDS011;2289;48.316;15.174;2024-03-17T03:21:10;2.27;;;2.07;;
4553;SDS011;2289;48.316;15.174;2024-03-17T03:23:38;4.10;;;2.20;;
4553;SDS011;2289;48.316;15.174;2024-03-17T03:26:06;2.90;;;2.17;;
4553;SDS011;2289;48.316;15.174;2024-03-17T03:28:35;6.17;;;2.37;;
4553;SDS011;2289;48.316;15.174;2024-03-17T03:31:04;2.10;;;2.00;;
4553;SDS011;2289;48.316;15.174;2024-03-17T03:33:34;10.80;;;2.43;;
4553;SDS011;2289;48.316;15.174;2024-03-17T03:36:06;3.73;;;3.43;;
4553;SDS011;2289;48.316;15.174;2024-03-17T03:38:35;3.83;;;3.43;;
4553;SDS011;2289;48.316;15.174;2024-03-17T03:41:06;3.50;;;3.03;;
4553;SDS011;2289;48.316;15.174;2024-03-17T03:43:35;14.80;;;5.50;;
4553;SDS011;2289;48.316;15.174;2024-03-17T03:46:03;4.10;;;3.70;;
4553;SDS011;2289;48.316;15.174;2024-03-17T03:48:31;6.40;;;5.03;;
4553;SDS011;2289;48.316;15.174;2024-03-17T03:51:04;6.03;;;4.80;;
4553;SDS011;2289;48.316;15.174;2024-03-17T03:53:32;10.30;;;4.70;;
4553;SDS011;2289;48.316;15.174;2024-03-17T03:56:00;5.10;;;4.60;;
4553;SDS011;2289;48.316;15.174;2024-03-17T03:58:32;9.90;;;4.33;;
4553;SDS011;2289;48.316;15.174;2024-03-17T04:01:00;8.63;;;4.27;;
4553;SDS011;2289;48.316;15.174;2024-03-17T04:03:30;6.53;;;4.70;;
4553;SDS011;2289;48.316;15.174;2024-03-17T04:06:03;5.80;;;5.20;;
4553;SDS011;2289;48.316;15.174;2024-03-17T04:08:32;4.33;;;3.93;;
4553;SDS011;2289;48.316;15.174;2024-03-17T04:11:00;6.77;;;4.00;;
4553;SDS011;2289;48.316;15.174;2024-03-17T04:13:28;4.37;;;3.97;;
4553;SDS011;2289;48.316;15.174;2024-03-17T04:15:56;6.00;;;4.00;;
4553;SDS011;2289;48.316;15.174;2024-03-17T04:18:24;4.83;;;3.70;;
4553;SDS011;2289;48.316;15.174;2024-03-17T04:20:52;3.97;;;3.60;;
4553;SDS011;2289;48.316;15.174;2024-03-17T04:23:22;6.00;;;4.27;;
4553;SDS011;2289;48.316;15.174;2024-03-17T04:25:50;6.70;;;4.10;;
4553;SDS011;2289;48.316;15.174;2024-03-17T04:28:18;8.00;;;4.40;;
4553;SDS011;2289;48.316;15.174;2024-03-17T04:30:46;6.23;;;4.97;;
4553;SDS011;2289;48.316;15.174;2024-03-17T04:33:14;4.03;;;3.30;;
4553;SDS011;2289;48.316;15.174;2024-03-17T04:35:42;5.37;;;4.80;;
4553;SDS011;2289;48.316;15.174;2024-03-17T04:38:10;4.40;;;3.97;;
4553;SDS011;2289;48.316;15.174;2024-03-17T04:40:41;6.00;;;3.50;;
4553;SDS011;2289;48.316;15.174;2024-03-17T04:43:09;4.13;;;3.77;;
4553;SDS011;2289;48.316;15.174;2024-03-17T04:45:37;11.07;;;3.43;;
4553;SDS011;2289;48.316;15.174;2024-03-17T04:48:04;3.93;;;3.37;;
4553;SDS011;2289;48.316;15.174;2024-03-17T04:50:32;4.23;;;3.83;;
4553;SDS011;2289;48.316;15.174;2024-03-17T04:53:00;4.80;;;3.83;;
4553;SDS011;2289;48.316;15.174;2024-03-17T04:55:28;5.60;;;3.70;;
4553;SDS011;2289;48.316;15.174;2024-03-17T04:57:57;3.70;;;3.40;;
4553;SDS011;2289;48.316;15.174;2024-03-17T05:00:24;7.10;;;3.90;;
4553;SDS011;2289;48.316;15.174;2024-03-17T05:02:52;5.97;;;4.10;;
4553;SDS011;2289;48.316;15.174;2024-03-17T05:05:21;4.13;;;3.73;;
4553;SDS011;2289;48.316;15.174;2024-03-17T05:07:50;16.17;;;4.13;;
4553;SDS011;2289;48.316;15.174;2024-03-17T05:10:17;13.80;;;4.50;;
4553;SDS011;2289;48.316;15.174;2024-03-17T05:12:44;5.50;;;3.80;;
4553;SDS011;2289;48.316;15.174;2024-03-17T05:15:15;4.77;;;4.10;;
4553;SDS011;2289;48.316;15.174;2024-03-17T05:17:42;3.93;;;3.43;;
4553;SDS011;2289;48.316;15.174;2024-03-17T05:20:10;4.93;;;3.20;;
4553;SDS011;2289;48.316;15.174;2024-03-17T05:22:38;3.37;;;3.10;;
4553;SDS011;2289;48.316;15.174;2024-03-17T05:25:10;6.47;;;4.00;;
4553;SDS011;2289;48.316;15.174;2024-03-17T05:27:38;3.73;;;3.43;;
4553;SDS011;2289;48.316;15.174;2024-03-17T05:30:06;4.63;;;3.10;;
4553;SDS011;2289;48.316;15.174;2024-03-17T05:32:37;3.63;;;2.77;;
4553;SDS011;2289;48.316;15.174;2024-03-17T05:35:05;4.30;;;3.50;;
4553;SDS011;2289;48.316;15.174;2024-03-17T05:37:33;3.83;;;3.40;;
4553;SDS011;2289;48.316;15.174;2024-03-17T05:40:00;4.73;;;3.80;;
4553;SDS011;2289;48.316;15.174;2024-03-17T05:42:28;3.77;;;2.80;;
4553;SDS011;2289;48.316;15.174;2024-03-17T05:44:55;5.43;;;3.03;;
4553;SDS011;2289;48.316;15.174;2024-03-17T05:47:23;4.20;;;3.17;;
4553;SDS011;2289;48.316;15.174;2024-03-17T05:49:52;4.40;;;3.17;;
4553;SDS011;2289;48.316;15.174;2024-03-17T05:52:20;3.77;;;3.00;;
4553;SDS011;2289;48.316;15.174;2024-03-17T05:54:47;2.93;;;2.40;;
4553;SDS011;2289;48.316;15.174;2024-03-17T05:57:14;3.50;;;3.10;;
4553;SDS011;2289;48.316;15.174;2024-03-17T05:59:42;3.13;;;2.90;;
4553;SDS011;2289;48.316;15.174;2024-03-17T06:02:10;4.07;;;3.37;;
4553;SDS011;2289;48.316;15.174;2024-03-17T06:04:37;6.07;;;4.50;;
4553;SDS011;2289;48.316;15.174;2024-03-17T06:07:06;5.27;;;3.47;;
4553;SDS011;2289;48.316;15.174;2024-03-17T06:09:34;4.03;;;2.83;;
4553;SDS011;2289;48.316;15.174;2024-03-17T06:12:01;3.60;;;3.30;;
4553;SDS011;2289;48.316;15.174;2024-03-17T06:14:29;6.43;;;4.30;;
4553;SDS011;2289;48.316;15.174;2024-03-17T06:16:56;3.87;;;3.30;;
4553;SDS011;2289;48.316;15.174;2024-03-17T06:19:24;4.40;;;3.40;;
4553;SDS011;2289;48.316;15.174;2024-03-17T06:21:51;3.73;;;2.97;;
4553;SDS011;2289;48.316;15.174;2024-03-17T06:24:21;4.73;;;2.60;;
4553;SDS011;2289;48.316;15.174;2024-03-17T06:26:50;5.03;;;3.53;;
4553;SDS011;2289;48.316;15.174;2024-03-17T06:29:17;4.33;;;3.03;;
4553;SDS011;2289;48.316;15.174;2024-03-17T06:31:45;6.73;;;2.57;;
4553;SDS011;2289;48.316;15.174;2024-03-17T06:34:13;4.17;;;2.97;;
4553;SDS011;2289;48.316;15.174;2024-03-17T06:36:41;3.60;;;3.07;;
4553;SDS011;2289;48.316;15.174;2024-03-17T06:39:09;3.03;;;2.73;;
4553;SDS011;2289;48.316;15.174;2024-03-17T06:41:42;3.20;;;2.80;;
4553;SDS011;2289;48.316;15.174;2024-03-17T06:44:10;3.77;;;3.43;;
4553;SDS011;2289;48.316;15.174;2024-03-17T06:46:37;7.97;;;3.40;;
4553;SDS011;2289;48.316;15.174;2024-03-17T06:49:05;8.60;;;4.30;;
4553;SDS011;2289;48.316;15.174;2024-03-17T06:51:33;4.27;;;3.87;;
4553;SDS011;2289;48.316;15.174;2024-03-17T06:54:01;7.77;;;4.30;;
4553;SDS011;2289;48.316;15.174;2024-03-17T06:56:29;5.70;;;4.13;;
4553;SDS011;2289;48.316;15.174;2024-03-17T06:59:00;5.47;;;3.60;;
4553;SDS011;2289;48.316;15.174;2024-03-17T07:01:27;6.10;;;4.80;;
4553;SDS011;2289;48.316;15.174;2024-03-17T07:03:54;6.47;;;4.70;;
4553;SDS011;2289;48.316;15.174;2024-03-17T07:06:22;25.80;;;14.40;;
4553;SDS011;2289;48.316;15.174;2024-03-17T07:08:50;15.53;;;8.97;;
4553;SDS011;2289;48.316;15.174;2024-03-17T07:11:18;10.63;;;5.10;;
4553;SDS011;2289;48.316;15.174;2024-03-17T07:13:49;7.70;;;5.27;;
4553;SDS011;2289;48.316;15.174;2024-03-17T07:16:18;5.83;;;4.80;;
4553;SDS011;2289;48.316;15.174;2024-03-17T07:18:47;10.10;;;5.70;;
4553;SDS011;2289;48.316;15.174;2024-03-17T07:21:15;4.03;;;3.60;;
4553;SDS011;2289;48.316;15.174;2024-03-17T07:23:43;4.30;;;3.30;;
4553;SDS011;2289;48.316;15.174;2024-03-17T07:26:10;4.00;;;3.60;;
4553;SDS011;2289;48.316;15.174;2024-03-17T07:28:39;7.50;;;2.60;;
4553;SDS011;2289;48.316;15.174;2024-03-17T07:31:08;3.47;;;3.17;;
4553;SDS011;2289;48.316;15.174;2024-03-17T07:33:37;3.33;;;2.50;;
4553;SDS011;2289;48.316;15.174;2024-03-17T07:36:05;2.77;;;2.47;;
4553;SDS011;2289;48.316;15.174;2024-03-17T07:38:34;4.07;;;3.17;;
4553;SDS011;2289;48.316;15.174;2024-03-17T07:41:03;2.30;;;2.10;;
4553;SDS011;2289;48.316;15.174;2024-03-17T07:43:32;2.73;;;2.40;;
4553;SDS011;2289;48.316;15.174;2024-03-17T07:46:01;8.80;;;3.20;;
4553;SDS011;2289;48.316;15.174;2024-03-17T07:48:29;2.80;;;2.43;;
4553;SDS011;2289;48.316;15.174;2024-03-17T07:50:58;2.80;;;2.37;;
4553;SDS011;2289;48.316;15.174;2024-03-17T07:53:29;3.13;;;2.80;;
4553;SDS011;2289;48.316;15.174;2024-03-17T07:55:57;4.63;;;2.50;;
4553;SDS011;2289;48.316;15.174;2024-03-17T07:58:26;3.53;;;2.57;;
4553;SDS011;2289;48.316;15.174;2024-03-17T08:00:56;3.23;;;2.70;;
4553;SDS011;2289;48.316;15.174;2024-03-17T08:03:26;3.30;;;2.97;;
4553;SDS011;2289;48.316;15.174;2024-03-17T08:05:54;2.33;;;2.13;;
4553;SDS011;2289;48.316;15.174;2024-03-17T08:08:23;2.63;;;2.43;;
4553;SDS011;2289;48.316;15.174;2024-03-17T08:10:51;5.20;;;3.00;;
4553;SDS011;2289;48.316;15.174;2024-03-17T08:13:20;3.13;;;2.30;;
4553;SDS011;2289;48.316;15.174;2024-03-17T08:15:54;3.40;;;2.20;;
4553;SDS011;2289;48.316;15.174;2024-03-17T08:18:23;3.53;;;2.40;;
4553;SDS011;2289;48.316;15.174;2024-03-17T08:20:51;6.23;;;2.37;;
4553;SDS011;2289;48.316;15.174;2024-03-17T08:23:19;3.43;;;2.53;;
4553;SDS011;2289;48.316;15.174;2024-03-17T08:25:52;4.97;;;2.77;;
4553;SDS011;2289;48.316;15.174;2024-03-17T08:28:20;3.97;;;2.70;;
4553;SDS011;2289;48.316;15.174;2024-03-17T08:30:52;2.97;;;2.67;;
4553;SDS011;2289;48.316;15.174;2024-03-17T08:33:20;3.87;;;2.40;;
4553;SDS011;2289;48.316;15.174;2024-03-17T08:35:52;1.80;;;1.60;;
4553;SDS011;2289;48.316;15.174;2024-03-17T08:38:20;2.50;;;2.30;;
4553;SDS011;2289;48.316;15.174;2024-03-17T08:40:48;4.90;;;2.63;;
4553;SDS011;2289;48.316;15.174;2024-03-17T08:43:17;1.90;;;1.77;;
4553;SDS011;2289;48.316;15.174;2024-03-17T08:45:53;2.13;;;1.83;;
4553;SDS011;2289;48.316;15.174;2024-03-17T08:48:21;2.33;;;1.97;;
4553;SDS011;2289;48.316;15.174;2024-03-17T08:50:50;2.63;;;2.20;;
4553;SDS011;2289;48.316;15.174;2024-03-17T08:53:18;2.70;;;2.13;;
4553;SDS011;2289;48.316;15.174;2024-03-17T08:55:46;2.53;;;2.33;;
4553;SDS011;2289;48.316;15.174;2024-03-17T08:58:14;2.73;;;1.90;;
4553;SDS011;2289;48.316;15.174;2024-03-17T09:00:43;2.47;;;1.90;;
4553;SDS011;2289;48.316;15.174;2024-03-17T09:03:11;3.70;;;2.23;;
4553;SDS011;2289;48.316;15.174;2024-03-17T09:05:39;6.00;;;2.67;;
4553;SDS011;2289;48.316;15.174;2024-03-17T09:08:07;2.10;;;1.90;;
4553;SDS011;2289;48.316;15.174;2024-03-17T09:10:38;3.03;;;1.97;;
4553;SDS011;2289;48.316;15.174;2024-03-17T09:13:06;2.50;;;2.27;;
4553;SDS011;2289;48.316;15.174;2024-03-17T09:15:34;3.30;;;2.30;;
4553;SDS011;2289;48.316;15.174;2024-03-17T09:18:03;3.83;;;2.20;;
4553;SDS011;2289;48.316;15.174;2024-03-17T09:20:31;1.90;;;1.70;;
4553;SDS011;2289;48.316;15.174;2024-03-17T09:22:58;2.50;;;2.30;;
4553;SDS011;2289;48.316;15.174;2024-03-17T09:25:26;3.93;;;2.33;;
4553;SDS011;2289;48.316;15.174;2024-03-17T09:27:53;2.17;;;2.00;;
4553;SDS011;2289;48.316;15.174;2024-03-17T09:30:21;6.60;;;2.20;;
4553;SDS011;2289;48.316;15.174;2024-03-17T09:32:48;2.80;;;2.00;;
4553;SDS011;2289;48.316;15.174;2024-03-17T09:35:17;2.93;;;2.20;;
4553;SDS011;2289;48.316;15.174;2024-03-17T09:37:45;2.47;;;2.27;;
4553;SDS011;2289;48.316;15.174;2024-03-17T09:40:13;3.50;;;1.80;;
4553;SDS011;2289;48.316;15.174;2024-03-17T09:42:41;3.37;;;2.50;;
4553;SDS011;2289;48.316;15.174;2024-03-17T09:45:10;2.80;;;1.77;;
4553;SDS011;2289;48.316;15.174;2024-03-17T09:47:38;2.57;;;2.37;;
4553;SDS011;2289;48.316;15.174;2024-03-17T09:50:12;2.00;;;1.83;;
4553;SDS011;2289;48.316;15.174;2024-03-17T09:52:42;4.50;;;3.03;;
4553;SDS011;2289;48.316;15.174;2024-03-17T09:55:13;3.10;;;2.77;;
4553;SDS011;2289;48.316;15.174;2024-03-17T09:57:43;2.20;;;2.00;;
4553;SDS011;2289;48.316;15.174;2024-03-17T10:00:13;3.70;;;2.90;;
4553;SDS011;2289;48.316;15.174;2024-03-17T10:02:42;2.80;;;2.53;;
4553;SDS011;2289;48.316;15.174;2024-03-17T10:05:19;3.40;;;2.27;;
4553;SDS011;2289;48.316;15.174;2024-03-17T10:07:49;3.60;;;2.33;;
4553;SDS011;2289;48.316;15.174;2024-03-17T10:10:17;1.83;;;1.73;;
4553;SDS011;2289;48.316;15.174;2024-03-17T10:12:49;2.23;;;1.57;;
4553;SDS011;2289;48.316;15.174;2024-03-17T10:15:17;3.90;;;2.43;;
4553;SDS011;2289;48.316;15.174;2024-03-17T10:17:45;2.90;;;2.70;;
4553;SDS011;2289;48.316;15.174;2024-03-17T10:20:13;3.10;;;2.27;;
4553;SDS011;2289;48.316;15.174;2024-03-17T10:22:58;2.63;;;2.43;;
4553;SDS011;2289;48.316;15.174;2024-03-17T10:25:27;5.20;;;2.60;;
4553;SDS011;2289;48.316;15.174;2024-03-17T10:27:55;2.07;;;1.87;;
4553;SDS011;2289;48.316;15.174;2024-03-17T10:30:23;3.13;;;2.00;;
4553;SDS011;2289;48.316;15.174;2024-03-17T10:32:52;1.63;;;1.53;;
4553;SDS011;2289;48.316;15.174;2024-03-17T10:35:27;2.13;;;1.80;;
4553;SDS011;2289;48.316;15.174;2024-03-17T10:38:01;3.40;;;2.03;;
4553;SDS011;2289;48.316;15.174;2024-03-17T10:40:30;2.20;;;1.83;;
4553;SDS011;2289;48.316;15.174;2024-03-17T10:42:59;2.00;;;1.90;;
4553;SDS011;2289;48.316;15.174;2024-03-17T10:45:28;6.20;;;2.20;;
4553;SDS011;2289;48.316;15.174;2024-03-17T10:47:59;2.00;;;1.80;;
4553;SDS011;2289;48.316;15.174;2024-03-17T10:50:29;2.37;;;1.87;;
4553;SDS011;2289;48.316;15.174;2024-03-17T10:52:58;3.27;;;1.70;;
4553;SDS011;2289;48.316;15.174;2024-03-17T10:55:36;1.90;;;1.57;;
4553;SDS011;2289;48.316;15.174;2024-03-17T10:58:11;6.63;;;3.83;;
4553;SDS011;2289;48.316;15.174;2024-03-17T11:00:48;3.70;;;1.90;;
4553;SDS011;2289;48.316;15.174;2024-03-17T11:03:18;2.20;;;2.00;;
4553;SDS011;2289;48.316;15.174;2024-03-17T11:05:46;4.30;;;2.13;;
4553;SDS011;2289;48.316;15.174;2024-03-17T11:08:16;2.70;;;2.50;;
4553;SDS011;2289;48.316;15.174;2024-03-17T11:10:48;2.03;;;1.93;;
4553;SDS011;2289;48.316;15.174;2024-03-17T11:13:25;2.27;;;1.83;;
4553;SDS011;2289;48.316;15.174;2024-03-17T11:15:53;3.07;;;1.63;;
4553;SDS011;2289;48.316;15.174;2024-03-17T11:18:34;8.00;;;5.30;;
4553;SDS011;2289;48.316;15.174;2024-03-17T11:21:03;3.07;;;2.07;;
4553;SDS011;2289;48.316;15.174;2024-03-17T11:23:38;2.50;;;1.73;;
4553;SDS011;2289;48.316;15.174;2024-03-17T11:26:05;3.60;;;2.10;;
4553;SDS011;2289;48.316;15.174;2024-03-17T11:28:46;1.97;;;1.60;;
4553;SDS011;2289;48.316;15.174;2024-03-17T11:31:34;5.53;;;1.83;;
4553;SDS011;2289;48.316;15.174;2024-03-17T11:34:29;5.90;;;1.80;;
4553;SDS011;2289;48.316;15.174;2024-03-17T11:37:05;2.53;;;1.93;;
4553;SDS011;2289;48.316;15.174;2024-03-17T11:39:51;8.20;;;3.80;;
4553;SDS011;2289;48.316;15.174;2024-03-17T11:42:23;5.37;;;1.93;;
4553;SDS011;2289;48.316;15.174;2024-03-17T11:45:04;3.70;;;1.87;;
4553;SDS011;2289;48.316;15.174;2024-03-17T11:47:36;2.47;;;2.27;;
4553;SDS011;2289;48.316;15.174;2024-03-17T11:50:05;3.07;;;1.80;;
4553;SDS011;2289;48.316;15.174;2024-03-17T11:52:35;3.23;;;2.40;;
4553;SDS011;2289;48.316;15.174;2024-03-17T11:55:04;2.37;;;1.70;;
4553;SDS011;2289;48.316;15.174;2024-03-17T11:57:32;5.00;;;2.37;;
4553;SDS011;2289;48.316;15.174;2024-03-17T11:59:59;2.30;;;1.50;;
4553;SDS011;2289;48.316;15.174;2024-03-17T12:02:30;2.43;;;1.70;;
4553;SDS011;2289;48.316;15.174;2024-03-17T12:04:59;2.00;;;1.63;;
4553;SDS011;2289;48.316;15.174;2024-03-17T12:07:28;1.90;;;1.70;;
4553;SDS011;2289;48.316;15.174;2024-03-17T12:09:56;1.47;;;1.37;;
4553;SDS011;2289;48.316;15.174;2024-03-17T12:12:25;2.23;;;1.80;;
4553;SDS011;2289;48.316;15.174;2024-03-17T12:15:01;2.10;;;2.00;;
4553;SDS011;2289;48.316;15.174;2024-03-17T12:17:31;3.30;;;1.80;;
4553;SDS011;2289;48.316;15.174;2024-03-17T12:19:58;2.40;;;1.77;;
4553;SDS011;2289;48.316;15.174;2024-03-17T12:22:26;2.50;;;1.70;;
4553;SDS011;2289;48.316;15.174;2024-03-17T12:24:58;5.60;;;1.80;;
4553;SDS011;2289;48.316;15.174;2024-03-17T12:27:28;2.50;;;1.73;;
4553;SDS011;2289;48.316;15.174;2024-03-17T12:29:55;2.40;;;1.40;;
4553;SDS011;2289;48.316;15.174;2024-03-17T12:32:23;2.33;;;1.50;;
4553;SDS011;2289;48.316;15.174;2024-03-17T12:34:52;3.80;;;1.63;;
4553;SDS011;2289;48.316;15.174;2024-03-17T12:37:22;7.40;;;1.73;;
4553;SDS011;2289;48.316;15.174;2024-03-17T12:39:49;2.87;;;1.40;;
4553;SDS011;2289;48.316;15.174;2024-03-17T12:42:17;1.63;;;1.53;;
4553;SDS011;2289;48.316;15.174;2024-03-17T12:44:51;1.90;;;1.80;;
4553;SDS011;2289;48.316;15.174;2024-03-17T12:47:19;5.07;;;1.87;;
4553;SDS011;2289;48.316;15.174;2024-03-17T12:49:47;3.50;;;1.43;;
4553;SDS011;2289;48.316;15.174;2024-03-17T12:52:18;1.70;;;1.40;;
4553;SDS011;2289;48.316;15.174;2024-03-17T12:54:45;5.23;;;1.87;;
4553;SDS011;2289;48.316;15.174;2024-03-17T12:57:43;4.37;;;1.40;;
4553;SDS011;2289;48.316;15.174;2024-03-17T13:00:30;1.57;;;1.47;;
4553;SDS011;2289;48.316;15.174;2024-03-17T13:03:01;1.50;;;1.40;;
4553;SDS011;2289;48.316;15.174;2024-03-17T13:05:29;1.63;;;1.50;;
4553;SDS011;2289;48.316;15.174;2024-03-17T13:07:58;1.87;;;1.50;;
4553;SDS011;2289;48.316;15.174;2024-03-17T13:10:27;2.87;;;1.40;;
4553;SDS011;2289;48.316;15.174;2024-03-17T13:12:59;2.13;;;1.53;;
4553;SDS011;2289;48.316;15.174;2024-03-17T13:15:30;10.30;;;1.90;;
4553;SDS011;2289;48.316;15.174;2024-03-17T13:17:58;1.13;;;1.07;;
4553;SDS011;2289;48.316;15.174;2024-03-17T13:20:26;1.27;;;1.00;;
4553;SDS011;2289;48.316;15.174;2024-03-17T13:22:55;1.47;;;1.37;;
4553;SDS011;2289;48.316;15.174;2024-03-17T13:25:23;2.37;;;1.40;;
4553;SDS011;2289;48.316;15.174;2024-03-17T13:27:55;1.67;;;1.30;;
4553;SDS011;2289;48.316;15.174;2024-03-17T13:30:23;2.30;;;1.60;;
4553;SDS011;2289;48.316;15.174;2024-03-17T13:32:55;1.60;;;1.50;;
4553;SDS011;2289;48.316;15.174;2024-03-17T13:35:25;3.87;;;1.43;;
4553;SDS011;2289;48.316;15.174;2024-03-17T13:37:53;4.93;;;1.80;;
4553;SDS011;2289;48.316;15.174;2024-03-17T13:40:21;1.90;;;1.80;;
4553;SDS011;2289;48.316;15.174;2024-03-17T13:42:50;1.93;;;1.57;;
4553;SDS011;2289;48.316;15.174;2024-03-17T13:45:21;1.50;;;1.40;;
4553;SDS011;2289;48.316;15.174;2024-03-17T13:47:50;2.10;;;1.90;;
4553;SDS011;2289;48.316;15.174;2024-03-17T13:50:20;1.70;;;1.50;;
4553;SDS011;2289;48.316;15.174;2024-03-17T13:52:48;3.27;;;1.60;;
4553;SDS011;2289;48.316;15.174;2024-03-17T13:55:17;2.53;;;1.70;;
4553;SDS011;2289;48.316;15.174;2024-03-17T13:57:46;2.20;;;1.33;;
4553;SDS011;2289;48.316;15.174;2024-03-17T14:00:14;1.57;;;1.47;;
4553;SDS011;2289;48.316;15.174;2024-03-17T14:02:43;2.27;;;2.10;;
4553;SDS011;2289;48.316;15.174;2024-03-17T14:05:12;2.50;;;1.70;;
4553;SDS011;2289;48.316;15.174;2024-03-17T14:07:41;1.77;;;1.43;;
4553;SDS011;2289;48.316;15.174;2024-03-17T14:10:11;2.23;;;1.53;;
4553;SDS011;2289;48.316;15.174;2024-03-17T14:12:39;1.80;;;1.70;;
4553;SDS011;2289;48.316;15.174;2024-03-17T14:15:07;3.30;;;2.93;;
4553;SDS011;2289;48.316;15.174;2024-03-17T14:17:37;1.37;;;1.27;;
4553;SDS011;2289;48.316;15.174;2024-03-17T14:20:06;1.57;;;1.43;;
4553;SDS011;2289;48.316;15.174;2024-03-17T14:22:35;2.93;;;1.33;;
4553;SDS011;2289;48.316;15.174;2024-03-17T14:25:05;5.40;;;1.30;;
4553;SDS011;2289;48.316;15.174;2024-03-17T14:27:35;1.40;;;1.30;;
4553;SDS011;2289;48.316;15.174;2024-03-17T14:30:03;1.70;;;1.50;;
4553;SDS011;2289;48.316;15.174;2024-03-17T14:32:32;1.57;;;1.47;;
4553;SDS011;2289;48.316;15.174;2024-03-17T14:34:59;2.30;;;1.40;;
4553;SDS011;2289;48.316;15.174;2024-03-17T14:37:27;2.60;;;1.47;;
4553;SDS011;2289;48.316;15.174;2024-03-17T14:39:54;1.50;;;1.30;;
4553;SDS011;2289;48.316;15.174;2024-03-17T14:42:23;2.53;;;1.50;;
4553;SDS011;2289;48.316;15.174;2024-03-17T14:44:51;1.20;;;1.10;;
4553;SDS011;2289;48.316;15.174;2024-03-17T14:47:19;1.73;;;1.20;;
4553;SDS011;2289;48.316;15.174;2024-03-17T14:49:47;1.23;;;1.10;;
4553;SDS011;2289;48.316;15.174;2024-03-17T14:52:15;2.37;;;1.30;;
4553;SDS011;2289;48.316;15.174;2024-03-17T14:54:42;3.63;;;1.93;;
4553;SDS011;2289;48.316;15.174;2024-03-17T14:57:10;4.73;;;1.20;;
4553;SDS011;2289;48.316;15.174;2024-03-17T14:59:39;1.50;;;1.40;;
4553;SDS011;2289;48.316;15.174;2024-03-17T15:02:07;1.10;;;1.00;;
4553;SDS011;2289;48.316;15.174;2024-03-17T15:04:36;2.90;;;1.40;;
4553;SDS011;2289;48.316;15.174;2024-03-17T15:07:03;17.80;;;10.67;;
4553;SDS011;2289;48.316;15.174;2024-03-17T15:09:31;2.50;;;1.43;;
4553;SDS011;2289;48.316;15.174;2024-03-17T15:11:59;7.40;;;3.43;;
4553;SDS011;2289;48.316;15.174;2024-03-17T15:14:28;2.03;;;1.73;;